Aviation Digital Data Service (ADDS)

Output produced by METARs form (0842 UTC 27 September 2016)
found at http://aviationweather.gov/adds/metars/
 
KMSS 270540Z 2706/2806 24009G18KT 6SM -SHRA OVC016 
     TEMPO 2706/2708 5SM -SHRA SCT015 OVC025 
     FM270800 22009KT P6SM BKN200 
     FM271400 23008KT P6SM SCT080 SCT250 
     FM271900 23008KT P6SM SCT070 
     FM280000 VRB03KT P6SM BKN060